Time;durP1;ratioP1;P1;durP2;ratioP2;P2;SDS_P1;SDS_P2;PMS_P1;PMS_P2;Temp;Humidity;BMP_temperature;BMP_pressure;BME280_temperature;BME280_humidity;BME280_pressure;Samples;Min_cycle;Max_cycle;Signal;HPM_P1;HPM_P2
2021/08/15 00:00:54;;;;;;;7.00;4.50;;;;;;;;;;5010446;28;20400;-62
2021/08/15 00:03:20;;;;;;;10.93;4.90;;;;;;;;;;5002559;28;20390;-62
2021/08/15 00:05:46;;;;;;;6.65;4.22;;;;;;;;;;5008701;28;20424;-62
2021/08/15 00:08:12;;;;;;;7.95;4.30;;;;;;;;;;5013605;28;20420;-62
2021/08/15 00:10:39;;;;;;;7.55;4.60;;;;;;;;;;5014495;28;20471;-62
2021/08/15 00:13:06;;;;;;;7.65;4.50;;;;;;;;;;5007623;28;20398;-63
2021/08/15 00:15:32;;;;;;;11.20;4.83;;;;;;;;;;5014898;28;20402;-63
2021/08/15 00:17:58;;;;;;;6.75;4.35;;;;;;;;;;5007334;28;20396;-63
2021/08/15 00:20:24;;;;;;;10.73;4.97;;;;;;;;;;5002528;28;20398;-62
2021/08/15 00:22:50;;;;;;;7.30;4.45;;;;;;;;;;5007419;28;20400;-62
2021/08/15 00:25:17;;;;;;;7.65;4.40;;;;;;;;;;5007846;28;20384;-62
2021/08/15 00:27:43;;;;;;;7.47;4.50;;;;;;;;;;5012803;28;20412;-62
2021/08/15 00:30:09;;;;;;;8.73;4.00;;;;;;;;;;5014206;28;20419;-62
2021/08/15 00:32:36;;;;;;;6.57;4.05;;;;;;;;;;5007573;28;20456;-62
2021/08/15 00:35:04;;;;;;;9.90;4.68;;;;;;;;;;5011612;28;20495;-62
2021/08/15 00:37:30;;;;;;;8.27;4.30;;;;;;;;;;5010463;28;20415;-62
2021/08/15 00:39:56;;;;;;;6.40;3.90;;;;;;;;;;5001559;28;20394;-62
2021/08/15 00:42:22;;;;;;;8.38;4.32;;;;;;;;;;5002997;28;20405;-62
2021/08/15 00:44:48;;;;;;;7.82;4.28;;;;;;;;;;4998265;28;20406;-62
2021/08/15 00:47:15;;;;;;;6.72;4.22;;;;;;;;;;5002198;28;20396;-62
2021/08/15 00:49:41;;;;;;;8.07;4.25;;;;;;;;;;5000827;28;20521;-62
2021/08/15 00:52:07;;;;;;;7.43;4.30;;;;;;;;;;5007627;28;20832;-62
2021/08/15 00:54:36;;;;;;;8.73;4.80;;;;;;;;;;5010665;28;20841;-62
2021/08/15 00:57:02;;;;;;;7.50;4.30;;;;;;;;;;5029048;28;20420;-62
2021/08/15 00:59:28;;;;;;;6.75;4.10;;;;;;;;;;5012267;28;20403;-62
2021/08/15 01:01:54;;;;;;;8.77;4.18;;;;;;;;;;4998168;28;20727;-60
2021/08/15 01:04:27;;;;;;;9.10;4.80;;;;;;;;;;4996869;28;20491;-60
2021/08/15 01:06:53;;;;;;;9.43;4.30;;;;;;;;;;5010670;28;20397;-60
2021/08/15 01:09:20;;;;;;;5.13;3.83;;;;;;;;;;5004034;28;20445;-60
2021/08/15 01:11:46;;;;;;;8.45;4.10;;;;;;;;;;5012009;28;21072;-60
2021/08/15 01:14:12;;;;;;;8.43;4.20;;;;;;;;;;5007394;28;20404;-60
2021/08/15 01:16:39;;;;;;;8.33;4.37;;;;;;;;;;5011347;28;20567;-60
2021/08/15 01:19:05;;;;;;;7.60;4.55;;;;;;;;;;4999538;28;20478;-60
2021/08/15 01:21:31;;;;;;;8.20;4.18;;;;;;;;;;5016988;28;20476;-60
2021/08/15 01:23:56;;;;;;;8.32;4.45;;;;;;;;;;5001640;28;20470;-61
2021/08/15 01:26:23;;;;;;;7.57;4.50;;;;;;;;;;5012606;28;20404;-60
2021/08/15 01:28:50;;;;;;;6.85;4.45;;;;;;;;;;5007308;28;20410;-60
2021/08/15 01:31:16;;;;;;;6.72;4.30;;;;;;;;;;5006790;28;21250;-60
2021/08/15 01:33:42;;;;;;;6.90;4.03;;;;;;;;;;5021561;28;20407;-60
2021/08/15 01:36:10;;;;;;;7.38;4.10;;;;;;;;;;5005090;28;20407;-60
2021/08/15 01:38:37;;;;;;;8.88;4.25;;;;;;;;;;5001987;28;20393;-60
2021/08/15 01:41:04;;;;;;;8.25;4.35;;;;;;;;;;5001741;28;20424;-61
2021/08/15 01:43:33;;;;;;;7.53;4.47;;;;;;;;;;5006286;28;20727;-60
2021/08/15 01:45:59;;;;;;;6.60;4.28;;;;;;;;;;4999840;28;20390;-60
2021/08/15 01:48:25;;;;;;;7.75;4.40;;;;;;;;;;5005191;28;20406;-60
2021/08/15 01:50:51;;;;;;;7.40;4.25;;;;;;;;;;4998669;28;20391;-60
2021/08/15 01:53:20;;;;;;;6.60;4.50;;;;;;;;;;5008745;28;20404;-59
2021/08/15 01:55:47;;;;;;;6.78;4.25;;;;;;;;;;5004601;28;20507;-60
2021/08/15 01:58:15;;;;;;;9.50;4.72;;;;;;;;;;5008242;28;20390;-60
2021/08/15 02:00:42;;;;;;;7.72;4.05;;;;;;;;;;5011357;28;20484;-60
2021/08/15 02:03:09;;;;;;;8.10;4.43;;;;;;;;;;4999980;28;20387;-60
2021/08/15 02:05:35;;;;;;;7.93;4.43;;;;;;;;;;4996165;28;20759;-60
2021/08/15 02:08:01;;;;;;;6.78;4.30;;;;;;;;;;5001413;28;20808;-60
2021/08/15 02:10:29;;;;;;;7.88;4.32;;;;;;;;;;5000428;28;20509;-60
2021/08/15 02:12:56;;;;;;;7.72;4.60;;;;;;;;;;5006773;28;20474;-60
2021/08/15 02:15:22;;;;;;;9.20;4.43;;;;;;;;;;5005080;28;20404;-60
2021/08/15 02:17:48;;;;;;;8.48;4.35;;;;;;;;;;5003269;28;20777;-60
2021/08/15 02:20:15;;;;;;;8.98;4.30;;;;;;;;;;5009391;28;20400;-60
2021/08/15 02:22:41;;;;;;;7.57;4.60;;;;;;;;;;5007189;28;20389;-60
2021/08/15 02:25:11;;;;;;;8.87;4.70;;;;;;;;;;5007651;28;20388;-60
2021/08/15 02:27:38;;;;;;;10.15;4.72;;;;;;;;;;5004219;28;20821;-60
2021/08/15 02:30:05;;;;;;;9.65;5.10;;;;;;;;;;4998463;28;20490;-60
2021/08/15 02:32:31;;;;;;;8.88;5.05;;;;;;;;;;5000710;28;20799;-60
2021/08/15 02:34:57;;;;;;;9.30;4.88;;;;;;;;;;5009749;28;20491;-60
2021/08/15 02:37:23;;;;;;;8.63;4.57;;;;;;;;;;5003550;28;20562;-60
2021/08/15 02:39:49;;;;;;;7.65;4.40;;;;;;;;;;5003600;28;20439;-60
2021/08/15 02:42:15;;;;;;;8.98;5.28;;;;;;;;;;4997982;28;20780;-60
2021/08/15 02:44:42;;;;;;;6.30;4.23;;;;;;;;;;5007227;28;20490;-60
2021/08/15 02:47:08;;;;;;;7.72;4.60;;;;;;;;;;5002952;28;20409;-60
2021/08/15 02:49:34;;;;;;;7.25;4.25;;;;;;;;;;5004765;28;20942;-60
2021/08/15 02:52:00;;;;;;;8.17;4.33;;;;;;;;;;4998550;28;20479;-60
2021/08/15 02:54:26;;;;;;;6.93;4.25;;;;;;;;;;4997092;28;20503;-60
2021/08/15 02:56:52;;;;;;;10.02;4.80;;;;;;;;;;5000729;28;20416;-59
2021/08/15 02:59:18;;;;;;;7.90;4.90;;;;;;;;;;5008660;28;20396;-60
2021/08/15 03:01:44;;;;;;;8.35;4.60;;;;;;;;;;5009109;28;20860;-60
2021/08/15 03:04:10;;;;;;;9.05;4.50;;;;;;;;;;5010059;28;20462;-60
2021/08/15 03:06:36;;;;;;;7.50;4.33;;;;;;;;;;4993586;28;20386;-60
2021/08/15 03:09:02;;;;;;;8.60;4.63;;;;;;;;;;5003925;28;20411;-60
2021/08/15 03:11:28;;;;;;;5.63;3.92;;;;;;;;;;5009491;28;20498;-60
2021/08/15 03:13:54;;;;;;;8.15;4.45;;;;;;;;;;5010063;28;20399;-60
2021/08/15 03:16:20;;;;;;;8.82;4.35;;;;;;;;;;5000145;28;20477;-60
2021/08/15 03:18:46;;;;;;;7.50;4.30;;;;;;;;;;5008742;28;20891;-60
2021/08/15 03:21:12;;;;;;;7.03;4.15;;;;;;;;;;5006430;28;20865;-60
2021/08/15 03:23:38;;;;;;;8.47;4.70;;;;;;;;;;5010656;28;20765;-60
2021/08/15 03:26:06;;;;;;;6.57;4.47;;;;;;;;;;5009817;28;20470;-60
2021/08/15 03:28:32;;;;;;;8.27;4.55;;;;;;;;;;5009769;28;20377;-60
2021/08/15 03:30:58;;;;;;;7.80;4.38;;;;;;;;;;5001276;28;20406;-60
2021/08/15 03:33:24;;;;;;;8.82;4.32;;;;;;;;;;5004260;28;20404;-60
2021/08/15 03:35:50;;;;;;;7.13;4.35;;;;;;;;;;5006556;28;20416;-60
2021/08/15 03:38:16;;;;;;;6.60;4.23;;;;;;;;;;5020273;28;20424;-60
2021/08/15 03:40:42;;;;;;;8.60;4.60;;;;;;;;;;5009906;28;20396;-60
2021/08/15 03:43:08;;;;;;;7.78;4.50;;;;;;;;;;5004345;28;20449;-60
2021/08/15 03:45:34;;;;;;;8.23;4.55;;;;;;;;;;5003405;28;20407;-60
2021/08/15 03:48:00;;;;;;;8.25;4.45;;;;;;;;;;5001897;28;20402;-60
2021/08/15 03:50:25;;;;;;;6.38;4.00;;;;;;;;;;5002180;28;20397;-60
2021/08/15 03:52:51;;;;;;;7.00;4.37;;;;;;;;;;5006971;28;20391;-60
2021/08/15 03:55:18;;;;;;;6.88;4.38;;;;;;;;;;5006555;28;20703;-60
2021/08/15 03:57:44;;;;;;;8.52;4.68;;;;;;;;;;5001155;28;20904;-60
2021/08/15 04:00:10;;;;;;;7.45;4.55;;;;;;;;;;5012277;28;20483;-60
2021/08/15 04:02:36;;;;;;;8.90;4.68;;;;;;;;;;5006989;28;20497;-60
2021/08/15 04:05:04;;;;;;;6.97;4.55;;;;;;;;;;5010261;28;20403;-60
2021/08/15 04:07:30;;;;;;;6.83;4.50;;;;;;;;;;5000171;28;20387;-60
2021/08/15 04:09:56;;;;;;;6.60;3.97;;;;;;;;;;5010617;28;20745;-60
2021/08/15 04:12:22;;;;;;;7.47;4.43;;;;;;;;;;5006462;28;20407;-60
2021/08/15 04:14:48;;;;;;;6.07;4.15;;;;;;;;;;5008774;28;20889;-60
2021/08/15 04:17:16;;;;;;;7.68;4.53;;;;;;;;;;5023445;28;20756;-60
2021/08/15 04:19:42;;;;;;;6.57;4.45;;;;;;;;;;5012504;28;20396;-60
2021/08/15 04:22:08;;;;;;;6.72;4.55;;;;;;;;;;5006816;28;20396;-60
2021/08/15 04:24:34;;;;;;;8.10;4.30;;;;;;;;;;5006941;28;20740;-60
2021/08/15 04:27:00;;;;;;;8.10;4.38;;;;;;;;;;5001031;28;20476;-60
2021/08/15 04:29:26;;;;;;;8.52;4.18;;;;;;;;;;5012723;28;20404;-60
2021/08/15 04:31:52;;;;;;;6.53;4.10;;;;;;;;;;5004039;28;20400;-60
2021/08/15 04:34:18;;;;;;;6.83;4.40;;;;;;;;;;5007129;28;20466;-60
2021/08/15 04:36:44;;;;;;;7.05;4.28;;;;;;;;;;5000356;28;20462;-60
2021/08/15 04:39:10;;;;;;;7.15;4.50;;;;;;;;;;4998455;28;20811;-60
2021/08/15 04:41:36;;;;;;;6.80;4.40;;;;;;;;;;5006549;28;20392;-60
2021/08/15 04:44:01;;;;;;;8.27;4.38;;;;;;;;;;5013345;28;20397;-60
2021/08/15 04:46:27;;;;;;;6.95;4.18;;;;;;;;;;5009138;28;20401;-60
2021/08/15 04:48:53;;;;;;;5.97;4.10;;;;;;;;;;5003741;28;20397;-60
2021/08/15 04:51:19;;;;;;;5.93;4.13;;;;;;;;;;5006895;28;20793;-60
2021/08/15 04:53:45;;;;;;;5.60;3.92;;;;;;;;;;5008588;28;20408;-60
2021/08/15 04:56:11;;;;;;;7.30;4.35;;;;;;;;;;5007330;28;20934;-60
2021/08/15 04:58:38;;;;;;;9.10;4.30;;;;;;;;;;5011446;28;20547;-60
2021/08/15 05:01:04;;;;;;;8.65;4.32;;;;;;;;;;5004076;28;20396;-60
2021/08/15 05:03:30;;;;;;;6.55;4.28;;;;;;;;;;5004740;28;20872;-61
2021/08/15 05:05:56;;;;;;;7.50;4.63;;;;;;;;;;4999238;28;20420;-60
2021/08/15 05:08:22;;;;;;;5.35;4.15;;;;;;;;;;5019930;28;20423;-60
2021/08/15 05:10:48;;;;;;;9.77;4.68;;;;;;;;;;5007427;28;20507;-60
2021/08/15 05:13:14;;;;;;;8.05;4.45;;;;;;;;;;5010869;28;20929;-61
2021/08/15 05:15:40;;;;;;;7.80;4.53;;;;;;;;;;5010034;28;20399;-60
2021/08/15 05:18:06;;;;;;;7.13;4.47;;;;;;;;;;5001162;28;20957;-60
2021/08/15 05:20:33;;;;;;;6.95;4.40;;;;;;;;;;5000788;28;20919;-60
2021/08/15 05:22:59;;;;;;;6.88;4.43;;;;;;;;;;5011151;28;20451;-60
2021/08/15 05:25:25;;;;;;;9.07;4.38;;;;;;;;;;5007798;28;20401;-60
2021/08/15 05:27:51;;;;;;;7.75;4.07;;;;;;;;;;5003352;28;20401;-60
2021/08/15 05:30:17;;;;;;;8.18;4.15;;;;;;;;;;5033051;28;20409;-60
2021/08/15 05:32:43;;;;;;;7.82;4.43;;;;;;;;;;5001905;28;20423;-60
2021/08/15 05:35:10;;;;;;;7.07;4.43;;;;;;;;;;5009941;28;20868;-60
2021/08/15 05:37:36;;;;;;;8.55;4.47;;;;;;;;;;5004710;28;20898;-60
2021/08/15 05:40:02;;;;;;;7.45;4.53;;;;;;;;;;5001233;28;20397;-60
2021/08/15 05:42:28;;;;;;;7.72;5.00;;;;;;;;;;5009893;28;20401;-61
2021/08/15 05:44:54;;;;;;;10.55;4.85;;;;;;;;;;5008513;28;20863;-60
2021/08/15 05:47:20;;;;;;;9.65;4.70;;;;;;;;;;5009943;28;20397;-60
2021/08/15 05:49:46;;;;;;;7.53;4.60;;;;;;;;;;5011425;28;22058;-60
2021/08/15 05:52:12;;;;;;;10.10;4.55;;;;;;;;;;5010767;28;20481;-60
2021/08/15 05:54:38;;;;;;;10.02;4.10;;;;;;;;;;5007955;28;20484;-61
2021/08/15 05:57:04;;;;;;;7.88;4.18;;;;;;;;;;5002132;28;20418;-60
2021/08/15 05:59:30;;;;;;;9.45;4.43;;;;;;;;;;5006220;28;20439;-61
2021/08/15 06:01:56;;;;;;;7.38;4.00;;;;;;;;;;5003917;28;20393;-61
2021/08/15 06:04:22;;;;;;;9.55;4.45;;;;;;;;;;5004900;28;20402;-61
2021/08/15 06:06:48;;;;;;;7.75;4.72;;;;;;;;;;4999974;28;20489;-61
2021/08/15 06:09:14;;;;;;;11.85;4.72;;;;;;;;;;5005953;28;20417;-61
2021/08/15 06:11:40;;;;;;;9.70;4.50;;;;;;;;;;5011557;28;20416;-61
2021/08/15 06:14:06;;;;;;;12.10;5.35;;;;;;;;;;5011274;28;20816;-61
2021/08/15 06:16:32;;;;;;;9.07;4.18;;;;;;;;;;5009106;28;20408;-61
2021/08/15 06:18:58;;;;;;;10.05;4.25;;;;;;;;;;5005918;28;20423;-60
2021/08/15 06:21:25;;;;;;;12.13;4.10;;;;;;;;;;5002852;28;20956;-61
2021/08/15 06:23:51;;;;;;;7.65;3.65;;;;;;;;;;5006228;28;20402;-61
2021/08/15 06:26:17;;;;;;;12.45;4.00;;;;;;;;;;4999598;28;20398;-61
2021/08/15 06:28:43;;;;;;;9.43;3.78;;;;;;;;;;5004970;28;20448;-61
2021/08/15 06:31:09;;;;;;;8.23;4.00;;;;;;;;;;4999510;28;20389;-61
2021/08/15 06:33:35;;;;;;;9.82;3.97;;;;;;;;;;5000155;28;20858;-60
2021/08/15 06:36:01;;;;;;;8.13;3.83;;;;;;;;;;5000462;28;20410;-61
2021/08/15 06:38:27;;;;;;;11.68;3.63;;;;;;;;;;5009075;28;20400;-60
2021/08/15 06:40:54;;;;;;;9.57;3.70;;;;;;;;;;5003524;28;20464;-60
2021/08/15 06:43:20;;;;;;;13.05;4.25;;;;;;;;;;5006630;28;20475;-61
2021/08/15 06:45:46;;;;;;;11.63;4.00;;;;;;;;;;5004748;28;20392;-61
2021/08/15 06:48:12;;;;;;;10.32;4.00;;;;;;;;;;5001115;28;20457;-59
2021/08/15 06:50:38;;;;;;;11.13;3.80;;;;;;;;;;5008183;28;20393;-61
2021/08/15 06:53:04;;;;;;;9.57;3.60;;;;;;;;;;5004416;28;20391;-61
2021/08/15 06:55:30;;;;;;;10.03;4.00;;;;;;;;;;5000630;28;20411;-61
2021/08/15 06:57:56;;;;;;;9.30;4.32;;;;;;;;;;5015113;28;20467;-61
2021/08/15 07:00:22;;;;;;;8.50;3.58;;;;;;;;;;5007072;28;20411;-60
2021/08/15 07:02:48;;;;;;;10.13;3.97;;;;;;;;;;5008790;28;20400;-60
2021/08/15 07:05:15;;;;;;;10.35;4.10;;;;;;;;;;5008340;28;20396;-60
2021/08/15 07:07:41;;;;;;;11.10;4.18;;;;;;;;;;5006430;28;20483;-60
2021/08/15 07:10:07;;;;;;;10.18;3.67;;;;;;;;;;4999903;28;20667;-61
2021/08/15 07:12:33;;;;;;;7.82;3.25;;;;;;;;;;5010741;28;20415;-60
2021/08/15 07:14:59;;;;;;;6.40;3.47;;;;;;;;;;5010417;28;20468;-60
2021/08/15 07:17:25;;;;;;;11.73;4.22;;;;;;;;;;5006154;28;20511;-60
2021/08/15 07:19:51;;;;;;;8.30;3.42;;;;;;;;;;5004282;28;20396;-60
2021/08/15 07:22:17;;;;;;;8.40;3.58;;;;;;;;;;5003080;28;20466;-60
2021/08/15 07:24:43;;;;;;;10.55;3.83;;;;;;;;;;5003248;28;20492;-60
2021/08/15 07:27:09;;;;;;;12.35;4.15;;;;;;;;;;5006177;28;20396;-61
2021/08/15 07:29:35;;;;;;;10.63;4.23;;;;;;;;;;5004940;28;20405;-61
2021/08/15 07:32:01;;;;;;;8.10;2.90;;;;;;;;;;5007681;28;20408;-61
2021/08/15 07:34:27;;;;;;;7.35;3.40;;;;;;;;;;5005658;28;20474;-62
2021/08/15 07:36:53;;;;;;;10.70;3.60;;;;;;;;;;4998620;28;20782;-62
2021/08/15 07:39:19;;;;;;;8.47;3.77;;;;;;;;;;5003006;28;20403;-62
2021/08/15 07:41:45;;;;;;;11.98;3.88;;;;;;;;;;5002571;28;20933;-61
2021/08/15 07:44:11;;;;;;;9.90;3.50;;;;;;;;;;4999596;28;20394;-61
2021/08/15 07:46:37;;;;;;;8.60;3.87;;;;;;;;;;5009342;28;20400;-59
2021/08/15 07:49:03;;;;;;;10.13;4.28;;;;;;;;;;5005959;28;20443;-60
2021/08/15 07:51:29;;;;;;;10.23;4.15;;;;;;;;;;5009264;28;20397;-61
2021/08/15 07:53:56;;;;;;;9.38;4.00;;;;;;;;;;5008948;28;20393;-61
2021/08/15 07:56:22;;;;;;;9.63;3.80;;;;;;;;;;5004452;28;20444;-61
2021/08/15 07:58:48;;;;;;;12.13;4.00;;;;;;;;;;5006279;28;20493;-61
2021/08/15 08:01:16;;;;;;;8.52;3.60;;;;;;;;;;5010281;28;20408;-61
2021/08/15 08:03:42;;;;;;;9.45;3.70;;;;;;;;;;5006515;28;20928;-61
2021/08/15 08:06:08;;;;;;;10.13;4.13;;;;;;;;;;5007090;28;20416;-61
2021/08/15 08:08:34;;;;;;;10.30;4.03;;;;;;;;;;5008125;28;20504;-61
2021/08/15 08:11:00;;;;;;;9.18;3.50;;;;;;;;;;5004454;28;20411;-61
2021/08/15 08:13:27;;;;;;;11.13;4.22;;;;;;;;;;5007024;28;20488;-61
2021/08/15 08:15:53;;;;;;;6.53;3.25;;;;;;;;;;5006741;28;20397;-61
2021/08/15 08:18:19;;;;;;;9.57;3.70;;;;;;;;;;5021881;28;20405;-61
2021/08/15 08:20:45;;;;;;;9.13;3.77;;;;;;;;;;4999383;28;20401;-61
2021/08/15 08:23:12;;;;;;;9.35;3.40;;;;;;;;;;5008896;28;20464;-61
2021/08/15 08:25:39;;;;;;;10.27;3.90;;;;;;;;;;5011366;28;20480;-61
2021/08/15 08:28:05;;;;;;;6.60;3.40;;;;;;;;;;5012002;28;21079;-61
2021/08/15 08:30:31;;;;;;;7.10;3.58;;;;;;;;;;5008386;28;20396;-61
2021/08/15 08:32:57;;;;;;;8.32;3.28;;;;;;;;;;5009230;28;20444;-61
2021/08/15 08:35:23;;;;;;;6.10;3.15;;;;;;;;;;5008975;28;20411;-61
2021/08/15 08:37:49;;;;;;;7.25;3.15;;;;;;;;;;5003068;28;20478;-62
2021/08/15 08:40:16;;;;;;;6.72;2.88;;;;;;;;;;5005296;28;20380;-62
2021/08/15 08:42:46;;;;;;;6.95;3.33;;;;;;;;;;5006035;28;20468;-61
2021/08/15 08:45:19;;;;;;;8.70;3.85;;;;;;;;;;5012082;28;20405;-61
2021/08/15 08:47:45;;;;;;;6.65;3.13;;;;;;;;;;5012340;28;20404;-61
2021/08/15 08:50:11;;;;;;;9.37;3.57;;;;;;;;;;5009152;28;20496;-62
2021/08/15 08:52:37;;;;;;;8.68;3.38;;;;;;;;;;5006241;28;20486;-62
2021/08/15 08:55:05;;;;;;;7.40;2.83;;;;;;;;;;5004590;28;20407;-61
2021/08/15 08:57:31;;;;;;;6.57;3.03;;;;;;;;;;5001070;28;20773;-61
2021/08/15 08:59:59;;;;;;;7.47;3.30;;;;;;;;;;5009216;28;20877;-61
2021/08/15 09:02:25;;;;;;;6.25;3.08;;;;;;;;;;5013517;28;20428;-61
2021/08/15 09:04:50;;;;;;;7.80;3.08;;;;;;;;;;5009250;28;20394;-62
2021/08/15 09:07:18;;;;;;;8.30;3.37;;;;;;;;;;5013175;28;20404;-61
2021/08/15 09:09:56;;;;;;;4.95;2.78;;;;;;;;;;4999134;28;20511;-61
2021/08/15 09:12:22;;;;;;;7.10;3.22;;;;;;;;;;5010832;28;20392;-61
2021/08/15 09:15:05;;;;;;;7.85;2.95;;;;;;;;;;5004981;28;20410;-62
2021/08/15 09:17:35;;;;;;;7.95;3.30;;;;;;;;;;5010088;28;20407;-62
2021/08/15 09:20:01;;;;;;;6.63;3.30;;;;;;;;;;5001267;28;21283;-61
2021/08/15 09:22:28;;;;;;;7.97;3.72;;;;;;;;;;5009394;28;20383;-61
2021/08/15 09:24:58;;;;;;;7.18;3.20;;;;;;;;;;5003919;28;20865;-62
2021/08/15 09:27:24;;;;;;;8.65;3.60;;;;;;;;;;5010795;28;20499;-61
2021/08/15 09:30:06;;;;;;;6.60;3.30;;;;;;;;;;5004002;28;20383;-62
2021/08/15 09:32:32;;;;;;;6.93;3.17;;;;;;;;;;5005932;28;20382;-61
2021/08/15 09:34:59;;;;;;;7.20;3.53;;;;;;;;;;5005849;28;20760;-62
2021/08/15 09:37:29;;;;;;;7.50;2.90;;;;;;;;;;5011271;28;20597;-62
2021/08/15 09:39:55;;;;;;;6.50;2.85;;;;;;;;;;5009380;28;20400;-62
2021/08/15 09:42:39;;;;;;;6.18;2.88;;;;;;;;;;5012735;28;20500;-62
2021/08/15 09:45:05;;;;;;;7.47;2.63;;;;;;;;;;4998981;28;20390;-62
2021/08/15 09:47:31;;;;;;;8.38;3.10;;;;;;;;;;5010428;28;20784;-62
2021/08/15 09:49:57;;;;;;;7.60;3.30;;;;;;;;;;4999186;28;20390;-62
2021/08/15 09:52:37;;;;;;;7.85;3.35;;;;;;;;;;5003102;28;20739;-62
2021/08/15 09:55:03;;;;;;;7.72;3.10;;;;;;;;;;5006258;28;20477;-62
2021/08/15 09:57:31;;;;;;;8.37;3.40;;;;;;;;;;5003933;28;20424;-62
2021/08/15 09:59:57;;;;;;;5.82;3.03;;;;;;;;;;5010341;28;20384;-62
2021/08/15 10:02:24;;;;;;;5.85;2.78;;;;;;;;;;5005424;28;20396;-62
2021/08/15 10:04:50;;;;;;;6.80;2.80;;;;;;;;;;4997501;28;21239;-62
2021/08/15 10:07:16;;;;;;;11.10;3.33;;;;;;;;;;5008564;28;20395;-62
2021/08/15 10:09:42;;;;;;;9.48;3.28;;;;;;;;;;5005172;28;20884;-62
2021/08/15 10:12:08;;;;;;;8.77;3.22;;;;;;;;;;5011868;28;20393;-62
2021/08/15 10:14:34;;;;;;;8.80;3.17;;;;;;;;;;5011861;28;20385;-61
2021/08/15 10:17:02;;;;;;;7.47;3.58;;;;;;;;;;5010538;28;20919;-62
2021/08/15 10:19:30;;;;;;;9.93;3.70;;;;;;;;;;5008382;28;20421;-62
2021/08/15 10:21:57;;;;;;;9.48;3.58;;;;;;;;;;5002848;28;20392;-62
2021/08/15 10:24:23;;;;;;;9.48;3.67;;;;;;;;;;4998583;28;20907;-62
2021/08/15 10:26:50;;;;;;;13.65;3.97;;;;;;;;;;5006216;28;20400;-61
2021/08/15 10:29:38;;;;;;;8.07;3.60;;;;;;;;;;4998503;28;20388;-62
2021/08/15 10:32:12;;;;;;;9.00;3.88;;;;;;;;;;4998541;28;20379;-61
2021/08/15 10:34:50;;;;;;;8.70;3.83;;;;;;;;;;5011402;28;20405;-61
2021/08/15 10:37:25;;;;;;;8.27;3.67;;;;;;;;;;5011115;28;20423;-61
2021/08/15 10:39:56;;;;;;;8.05;3.88;;;;;;;;;;5008238;28;20960;-61
2021/08/15 10:42:43;;;;;;;8.07;4.07;;;;;;;;;;5008954;28;20500;-61
2021/08/15 10:45:10;;;;;;;9.30;3.80;;;;;;;;;;4998302;28;20385;-61
2021/08/15 10:47:37;;;;;;;7.97;3.67;;;;;;;;;;5002548;28;20473;-61
2021/08/15 10:50:05;;;;;;;7.85;3.92;;;;;;;;;;5005304;28;20787;-62
2021/08/15 10:52:38;;;;;;;9.55;4.00;;;;;;;;;;5020469;28;20397;-61
2021/08/15 10:55:06;;;;;;;8.82;3.70;;;;;;;;;;5007917;28;20394;-61
2021/08/15 10:57:40;;;;;;;9.68;3.67;;;;;;;;;;5001260;28;20404;-61
2021/08/15 11:00:24;;;;;;;8.77;4.35;;;;;;;;;;4997866;28;20401;-62
2021/08/15 11:02:50;;;;;;;7.77;3.63;;;;;;;;;;5006381;28;20393;-62
2021/08/15 11:05:34;;;;;;;8.80;4.15;;;;;;;;;;5010878;28;20399;-61
2021/08/15 11:08:00;;;;;;;8.05;3.97;;;;;;;;;;5009112;28;20894;-61
2021/08/15 11:10:26;;;;;;;8.95;4.43;;;;;;;;;;5020281;28;20412;-62
2021/08/15 11:13:10;;;;;;;9.10;3.93;;;;;;;;;;5008797;28;21001;-61
2021/08/15 11:15:36;;;;;;;8.27;3.70;;;;;;;;;;5001354;28;20472;-62
2021/08/15 11:18:13;;;;;;;7.72;3.80;;;;;;;;;;5005344;28;20416;-61
2021/08/15 11:20:47;;;;;;;8.93;4.05;;;;;;;;;;5007992;28;20421;-61
2021/08/15 11:23:13;;;;;;;8.98;4.05;;;;;;;;;;5002269;28;20462;-61
2021/08/15 11:25:39;;;;;;;9.02;4.07;;;;;;;;;;5001493;28;20406;-62
2021/08/15 11:28:05;;;;;;;8.82;4.00;;;;;;;;;;5001591;28;20395;-62
2021/08/15 11:30:31;;;;;;;7.70;3.90;;;;;;;;;;5007213;28;20495;-61
2021/08/15 11:33:03;;;;;;;9.23;3.83;;;;;;;;;;5006663;28;20403;-62
2021/08/15 11:35:55;;;;;;;7.63;3.58;;;;;;;;;;5006416;28;20409;-62
2021/08/15 11:38:21;;;;;;;8.60;3.75;;;;;;;;;;5001524;28;20412;-62
2021/08/15 11:40:49;;;;;;;10.68;4.20;;;;;;;;;;5005536;28;20412;-62
2021/08/15 11:43:16;;;;;;;8.70;4.03;;;;;;;;;;5010389;28;20384;-62
2021/08/15 11:45:47;;;;;;;8.98;3.85;;;;;;;;;;5004034;28;20395;-62
2021/08/15 11:48:26;;;;;;;10.52;4.05;;;;;;;;;;5003280;28;20393;-62
2021/08/15 11:50:54;;;;;;;9.55;3.90;;;;;;;;;;5002755;28;20432;-62
2021/08/15 11:53:27;;;;;;;9.32;4.13;;;;;;;;;;5009754;28;20400;-62
2021/08/15 11:55:54;;;;;;;7.40;3.42;;;;;;;;;;5008898;28;20398;-62
2021/08/15 11:58:20;;;;;;;7.85;3.88;;;;;;;;;;5009024;28;20492;-62
2021/08/15 12:00:47;;;;;;;6.70;3.90;;;;;;;;;;5012074;28;20442;-62
2021/08/15 12:03:16;;;;;;;9.13;3.83;;;;;;;;;;5012659;28;20475;-62
2021/08/15 12:05:44;;;;;;;8.65;4.30;;;;;;;;;;5010830;28;20411;-62
2021/08/15 12:08:11;;;;;;;9.57;3.83;;;;;;;;;;5011162;28;20396;-62
2021/08/15 12:10:41;;;;;;;8.60;3.50;;;;;;;;;;5004211;28;20417;-62
2021/08/15 12:13:11;;;;;;;8.87;3.93;;;;;;;;;;5008528;28;20400;-62
2021/08/15 12:15:38;;;;;;;8.98;4.07;;;;;;;;;;5012299;28;20419;-62
2021/08/15 12:18:04;;;;;;;8.23;3.90;;;;;;;;;;5011756;28;20459;-62
2021/08/15 12:20:30;;;;;;;7.30;3.72;;;;;;;;;;5012044;28;20503;-62
2021/08/15 12:23:06;;;;;;;6.32;3.38;;;;;;;;;;5009987;28;20409;-62
2021/08/15 12:25:32;;;;;;;8.88;3.78;;;;;;;;;;5010696;28;20493;-62
2021/08/15 12:28:11;;;;;;;6.45;3.40;;;;;;;;;;5007269;28;20484;-62
2021/08/15 12:30:37;;;;;;;8.98;3.90;;;;;;;;;;5012051;28;20477;-62
2021/08/15 12:33:22;;;;;;;9.88;4.30;;;;;;;;;;5009282;28;20413;-61
2021/08/15 12:35:47;;;;;;;9.27;3.83;;;;;;;;;;5007043;28;20396;-62
2021/08/15 12:38:30;;;;;;;5.47;3.10;;;;;;;;;;5001740;28;20464;-62
2021/08/15 12:40:56;;;;;;;9.18;3.90;;;;;;;;;;5007171;28;20403;-62
2021/08/15 12:43:25;;;;;;;6.38;3.45;;;;;;;;;;5001878;28;20423;-62
2021/08/15 12:45:51;;;;;;;9.45;3.63;;;;;;;;;;5002641;28;20409;-61
2021/08/15 12:48:18;;;;;;;8.73;3.58;;;;;;;;;;5009294;28;20401;-62
2021/08/15 12:50:47;;;;;;;8.70;3.60;;;;;;;;;;5004194;28;20404;-62
2021/08/15 12:53:15;;;;;;;8.75;3.80;;;;;;;;;;5009917;28;20398;-62
2021/08/15 12:55:41;;;;;;;7.50;3.88;;;;;;;;;;5007644;28;20397;-62
2021/08/15 12:58:08;;;;;;;8.07;3.40;;;;;;;;;;5009518;28;20413;-62
2021/08/15 13:00:59;;;;;;;10.15;3.92;;;;;;;;;;5001999;28;20934;-62
2021/08/15 13:03:25;;;;;;;10.15;3.80;;;;;;;;;;5010407;28;20404;-62
2021/08/15 13:05:51;;;;;;;8.68;3.45;;;;;;;;;;5010601;28;20415;-62
2021/08/15 13:08:17;;;;;;;9.15;3.67;;;;;;;;;;4999546;28;20385;-62
2021/08/15 13:10:44;;;;;;;6.87;3.43;;;;;;;;;;5005648;28;20409;-62
2021/08/15 13:13:11;;;;;;;6.25;3.25;;;;;;;;;;5006209;28;20880;-62
2021/08/15 13:15:37;;;;;;;6.25;3.28;;;;;;;;;;5002576;28;20442;-62
2021/08/15 13:18:04;;;;;;;7.25;3.45;;;;;;;;;;5001164;28;20851;-62
2021/08/15 13:20:32;;;;;;;9.10;3.80;;;;;;;;;;5004579;28;20409;-62
2021/08/15 13:22:58;;;;;;;5.97;3.13;;;;;;;;;;5005562;28;20937;-62
2021/08/15 13:25:26;;;;;;;7.65;3.80;;;;;;;;;;5007738;28;20499;-61
2021/08/15 13:27:53;;;;;;;7.33;3.33;;;;;;;;;;5001567;28;20393;-62
2021/08/15 13:30:19;;;;;;;10.13;3.93;;;;;;;;;;4998131;28;20394;-61
2021/08/15 13:32:45;;;;;;;6.30;3.38;;;;;;;;;;5005565;28;20434;-62
2021/08/15 13:35:12;;;;;;;7.78;3.33;;;;;;;;;;5007060;28;20403;-62
2021/08/15 13:37:39;;;;;;;7.53;3.00;;;;;;;;;;4996916;28;20414;-62
2021/08/15 13:40:06;;;;;;;7.13;3.58;;;;;;;;;;5004569;28;20433;-62
2021/08/15 13:42:33;;;;;;;6.97;3.15;;;;;;;;;;5006077;28;20443;-62
2021/08/15 13:44:59;;;;;;;6.40;3.00;;;;;;;;;;5004718;28;20895;-62
2021/08/15 13:47:26;;;;;;;7.20;3.15;;;;;;;;;;5007548;28;20406;-62
2021/08/15 13:49:52;;;;;;;5.20;3.00;;;;;;;;;;5005597;28;20494;-62
2021/08/15 13:52:18;;;;;;;6.78;3.35;;;;;;;;;;5010955;28;20401;-62
2021/08/15 13:54:45;;;;;;;5.35;2.90;;;;;;;;;;5004850;28;20503;-62
2021/08/15 13:57:11;;;;;;;6.22;3.35;;;;;;;;;;5004245;28;20980;-62
2021/08/15 13:59:38;;;;;;;6.10;3.33;;;;;;;;;;5001953;28;20492;-62
2021/08/15 14:02:05;;;;;;;6.63;2.88;;;;;;;;;;5001987;28;20399;-62
2021/08/15 14:04:31;;;;;;;6.22;3.30;;;;;;;;;;5002573;28;20706;-63
2021/08/15 14:06:58;;;;;;;7.30;2.83;;;;;;;;;;5000477;28;20434;-63
2021/08/15 14:09:24;;;;;;;7.33;3.03;;;;;;;;;;5002943;28;21118;-62
2021/08/15 14:11:50;;;;;;;7.45;3.08;;;;;;;;;;4999555;28;20405;-62
2021/08/15 14:14:16;;;;;;;9.63;3.22;;;;;;;;;;5007089;28;20411;-62
2021/08/15 14:16:42;;;;;;;5.70;2.87;;;;;;;;;;5008455;28;20884;-62
2021/08/15 14:19:09;;;;;;;6.43;2.85;;;;;;;;;;4999520;28;20422;-61
2021/08/15 14:21:35;;;;;;;7.90;2.83;;;;;;;;;;5007984;28;20398;-62
2021/08/15 14:24:01;;;;;;;5.57;2.53;;;;;;;;;;4994775;28;20881;-62
2021/08/15 14:26:27;;;;;;;6.13;2.95;;;;;;;;;;5007482;28;20408;-62
2021/08/15 14:28:53;;;;;;;4.13;2.50;;;;;;;;;;5003385;28;20760;-62
2021/08/15 14:31:19;;;;;;;6.57;2.47;;;;;;;;;;5004901;28;20396;-62
2021/08/15 14:33:45;;;;;;;4.85;2.25;;;;;;;;;;4996508;28;20418;-63
2021/08/15 14:36:12;;;;;;;5.07;2.10;;;;;;;;;;5003355;28;20427;-63
2021/08/15 14:38:38;;;;;;;3.60;2.30;;;;;;;;;;5003261;28;20395;-63
2021/08/15 14:41:05;;;;;;;3.63;2.10;;;;;;;;;;5004486;28;21670;-63